RYR8SQ EIDW-LIME
Flight info
| Callsign | RYR8SQ |
|---|---|
| Flight time | 1h 59m |
| Altitude | 33000 |
| Route | ENDEQ3J ENDEQ Q36 EPOXI L15 KEPAD L151 TELBA/N0446F390 L151 MID UL612 VEULE DCT TEPRI UN491 POGZI DCT GELTA DCT LUVAL DCT SHARA DCT DEVDI DCT RIPUS DCT GERSA DCT SOSON DCT ODINA |
| Aircraft | B38M/M-SDE1FGHILORVWXY/HB1 |
Departure
| Time | 2026-05-01 12:28 |
|---|---|
| Airport | Dublin Airport (EIDW) |
Arrival
| Time | 2026-05-01 14:27 |
|---|---|
| Airport | Il Caravaggio International Airport (LIME) |
| Time | Latitude | Longitude | Altitude | Speed | Heading |
|---|---|---|---|---|---|
| 2026-05-01 12:27 | 53.40952 | -6.02837 | 7612 ft | 280 kts | 89° |
| 2026-05-01 12:28 | 53.41420 | -5.96218 | 9001 ft | 290 kts | 89° |
| 2026-05-01 12:28 | 53.41659 | -5.92853 | 9094 ft | 289 kts | 89° |
| 2026-05-01 12:28 | 53.42137 | -5.86153 | 9111 ft | 289 kts | 89° |
| 2026-05-01 12:29 | 53.42370 | -5.82854 | 9115 ft | 289 kts | 89° |
| 2026-05-01 12:29 | 53.42603 | -5.79488 | 9289 ft | 291 kts | 89° |
| 2026-05-01 12:29 | 53.43061 | -5.72679 | 10864 ft | 306 kts | 89° |
| 2026-05-01 12:30 | 53.43567 | -5.65122 | 11721 ft | 343 kts | 89° |
| 2026-05-01 12:30 | 53.43835 | -5.61105 | 12417 ft | 348 kts | 89° |
| 2026-05-01 12:30 | 53.44103 | -5.57045 | 13193 ft | 352 kts | 89° |
| 2026-05-01 12:31 | 53.44374 | -5.52938 | 13916 ft | 356 kts | 89° |
| 2026-05-01 12:31 | 53.44547 | -5.48776 | 14397 ft | 361 kts | 97° |
| 2026-05-01 12:31 | 53.44392 | -5.44539 | 14663 ft | 374 kts | 98° |
| 2026-05-01 12:31 | 53.44268 | -5.40150 | 15230 ft | 376 kts | 97° |
| 2026-05-01 12:32 | 53.44159 | -5.35748 | 15868 ft | 380 kts | 97° |
| 2026-05-01 12:32 | 53.43961 | -5.26800 | 17110 ft | 387 kts | 97° |
| 2026-05-01 12:32 | 53.43863 | -5.22264 | 17715 ft | 391 kts | 96° |
| 2026-05-01 12:33 | 53.43760 | -5.17682 | 18286 ft | 394 kts | 97° |
| 2026-05-01 12:33 | 53.43618 | -5.13070 | 18777 ft | 397 kts | 97° |
| 2026-05-01 12:33 | 53.43473 | -5.08437 | 19252 ft | 400 kts | 97° |
| 2026-05-01 12:33 | 53.43326 | -5.03763 | 19720 ft | 402 kts | 97° |
| 2026-05-01 12:34 | 53.43179 | -4.99110 | 20174 ft | 405 kts | 97° |
| 2026-05-01 12:34 | 53.43028 | -4.94378 | 20629 ft | 407 kts | 98° |
| 2026-05-01 12:34 | 53.42874 | -4.89615 | 21079 ft | 410 kts | 98° |
| 2026-05-01 12:34 | 53.42718 | -4.84837 | 21519 ft | 412 kts | 98° |
| 2026-05-01 12:35 | 53.42559 | -4.80014 | 21935 ft | 415 kts | 98° |
| 2026-05-01 12:35 | 53.42397 | -4.75167 | 22331 ft | 417 kts | 98° |
| 2026-05-01 12:35 | 53.42232 | -4.70291 | 22701 ft | 420 kts | 98° |
| 2026-05-01 12:35 | 53.42052 | -4.65052 | 23064 ft | 422 kts | 98° |
| 2026-05-01 12:36 | 53.41894 | -4.60468 | 23367 ft | 423 kts | 98° |
| 2026-05-01 12:36 | 53.41720 | -4.55540 | 23671 ft | 425 kts | 98° |
| 2026-05-01 12:36 | 53.41544 | -4.50563 | 23914 ft | 427 kts | 98° |
| 2026-05-01 12:36 | 53.41368 | -4.45650 | 24150 ft | 429 kts | 98° |
| 2026-05-01 12:37 | 53.41187 | -4.40651 | 24371 ft | 430 kts | 98° |
| 2026-05-01 12:37 | 53.41002 | -4.35636 | 24590 ft | 432 kts | 98° |
| 2026-05-01 12:37 | 53.40815 | -4.30586 | 24820 ft | 433 kts | 98° |
| 2026-05-01 12:37 | 53.40624 | -4.25531 | 25024 ft | 435 kts | 98° |
| 2026-05-01 12:38 | 53.40428 | -4.20461 | 25216 ft | 435 kts | 99° |
| 2026-05-01 12:38 | 53.39842 | -4.15526 | 25405 ft | 429 kts | 114° |
| 2026-05-01 12:38 | 53.38562 | -4.11138 | 25589 ft | 424 kts | 126° |
| 2026-05-01 12:38 | 53.37016 | -4.06895 | 25752 ft | 427 kts | 124° |
| 2026-05-01 12:39 | 53.35512 | -4.02574 | 26003 ft | 429 kts | 123° |
| 2026-05-01 12:39 | 53.34015 | -3.98225 | 26169 ft | 431 kts | 123° |
| 2026-05-01 12:39 | 53.32524 | -3.93884 | 26394 ft | 432 kts | 123° |
| 2026-05-01 12:39 | 53.31023 | -3.89510 | 26518 ft | 434 kts | 123° |
| 2026-05-01 12:40 | 53.29510 | -3.85109 | 26685 ft | 434 kts | 123° |
| 2026-05-01 12:40 | 53.28004 | -3.80736 | 26812 ft | 435 kts | 123° |
| 2026-05-01 12:40 | 53.26487 | -3.76336 | 26933 ft | 437 kts | 123° |
| 2026-05-01 12:40 | 53.24971 | -3.71948 | 27047 ft | 437 kts | 123° |
| 2026-05-01 12:41 | 53.23445 | -3.67540 | 27162 ft | 438 kts | 123° |
| 2026-05-01 12:41 | 53.21918 | -3.63135 | 27282 ft | 439 kts | 123° |
| 2026-05-01 12:41 | 53.20387 | -3.58726 | 27379 ft | 440 kts | 123° |
| 2026-05-01 12:41 | 53.18849 | -3.54308 | 27489 ft | 440 kts | 123° |
| 2026-05-01 12:42 | 53.17305 | -3.49878 | 27587 ft | 441 kts | 123° |
| 2026-05-01 12:42 | 53.15779 | -3.45509 | 27695 ft | 442 kts | 123° |
| 2026-05-01 12:42 | 53.14231 | -3.41085 | 27884 ft | 442 kts | 123° |
| 2026-05-01 12:42 | 53.12658 | -3.36597 | 27996 ft | 444 kts | 123° |
| 2026-05-01 12:43 | 53.11097 | -3.32148 | 28114 ft | 445 kts | 123° |
| 2026-05-01 12:43 | 53.09551 | -3.27751 | 28193 ft | 445 kts | 123° |
| 2026-05-01 12:43 | 53.06409 | -3.18845 | 28336 ft | 446 kts | 123° |
| 2026-05-01 12:44 | 53.03255 | -3.09933 | 28493 ft | 448 kts | 123° |
| 2026-05-01 12:44 | 53.00083 | -3.01001 | 28612 ft | 449 kts | 123° |
| 2026-05-01 12:45 | 52.96898 | -2.92069 | 28712 ft | 450 kts | 124° |
| 2026-05-01 12:45 | 52.93695 | -2.83115 | 28803 ft | 451 kts | 124° |
| 2026-05-01 12:46 | 52.90481 | -2.74162 | 28900 ft | 452 kts | 124° |
| 2026-05-01 12:46 | 52.87283 | -2.65288 | 29148 ft | 450 kts | 124° |
| 2026-05-01 12:47 | 52.85685 | -2.60863 | 29315 ft | 448 kts | 124° |
| 2026-05-01 12:47 | 52.84087 | -2.56448 | 29499 ft | 446 kts | 124° |
| 2026-05-01 12:47 | 52.82491 | -2.52054 | 29669 ft | 444 kts | 125° |
| 2026-05-01 12:47 | 52.80574 | -2.48114 | 29823 ft | 437 kts | 141° |
| 2026-05-01 12:48 | 52.78175 | -2.45096 | 30011 ft | 432 kts | 147° |
| 2026-05-01 12:48 | 52.75720 | -2.42225 | 30172 ft | 431 kts | 147° |
| 2026-05-01 12:48 | 52.73245 | -2.39411 | 30334 ft | 431 kts | 148° |
| 2026-05-01 12:48 | 52.70767 | -2.36638 | 30475 ft | 430 kts | 148° |
| 2026-05-01 12:49 | 52.68287 | -2.33892 | 30623 ft | 430 kts | 148° |
| 2026-05-01 12:49 | 52.65803 | -2.31158 | 30775 ft | 430 kts | 148° |
| 2026-05-01 12:49 | 52.63315 | -2.28425 | 30924 ft | 430 kts | 148° |
| 2026-05-01 12:49 | 52.60850 | -2.25723 | 31081 ft | 431 kts | 148° |
| 2026-05-01 12:50 | 52.58321 | -2.22956 | 31237 ft | 432 kts | 148° |
| 2026-05-01 12:50 | 52.55842 | -2.20247 | 31244 ft | 436 kts | 148° |
| 2026-05-01 12:50 | 52.50712 | -2.14654 | 31181 ft | 446 kts | 148° |
| 2026-05-01 12:51 | 52.45504 | -2.08990 | 31185 ft | 451 kts | 148° |
| 2026-05-01 12:52 | 52.37650 | -2.00479 | 31192 ft | 455 kts | 149° |
| 2026-05-01 12:52 | 52.29698 | -1.91902 | 31192 ft | 456 kts | 149° |
| 2026-05-01 12:53 | 52.21735 | -1.83351 | 31193 ft | 457 kts | 149° |
| 2026-05-01 12:54 | 52.16420 | -1.77664 | 31186 ft | 457 kts | 149° |
| 2026-05-01 12:54 | 52.08431 | -1.69144 | 31185 ft | 457 kts | 149° |
| 2026-05-01 12:55 | 52.00513 | -1.60727 | 31185 ft | 456 kts | 149° |
| 2026-05-01 12:55 | 51.97863 | -1.57925 | 31343 ft | 449 kts | 149° |
| 2026-05-01 12:56 | 51.95257 | -1.55172 | 31533 ft | 446 kts | 149° |
| 2026-05-01 12:56 | 51.92656 | -1.52429 | 31726 ft | 446 kts | 149° |
| 2026-05-01 12:56 | 51.90062 | -1.49697 | 31901 ft | 445 kts | 149° |
| 2026-05-01 12:56 | 51.88336 | -1.47881 | 32053 ft | 445 kts | 149° |
| 2026-05-01 12:57 | 51.85736 | -1.45148 | 32234 ft | 445 kts | 149° |
| 2026-05-01 12:57 | 51.79708 | -1.38823 | 32697 ft | 445 kts | 149° |
| 2026-05-01 12:57 | 51.77954 | -1.36988 | 32831 ft | 445 kts | 149° |
| 2026-05-01 12:58 | 51.75351 | -1.34266 | 33037 ft | 446 kts | 149° |
| 2026-05-01 12:58 | 51.72751 | -1.31551 | 33150 ft | 443 kts | 149° |
| 2026-05-01 12:59 | 51.65027 | -1.23507 | 33129 ft | 440 kts | 149° |
| 2026-05-01 12:59 | 51.57331 | -1.15524 | 33133 ft | 440 kts | 149° |
| 2026-05-01 13:00 | 51.49593 | -1.07532 | 33133 ft | 441 kts | 149° |
| 2026-05-01 13:01 | 51.41850 | -0.99567 | 33143 ft | 440 kts | 149° |
| 2026-05-01 13:02 | 51.34112 | -0.91640 | 33155 ft | 440 kts | 149° |
| 2026-05-01 13:07 | 50.77889 | -0.33244 | 33210 ft | 438 kts | 148° |
| 2026-05-01 13:08 | 50.72818 | -0.27910 | 33209 ft | 437 kts | 148° |
| 2026-05-01 13:08 | 50.67784 | -0.22622 | 33209 ft | 437 kts | 148° |
| 2026-05-01 13:09 | 50.62725 | -0.17318 | 33206 ft | 437 kts | 147° |
| 2026-05-01 13:09 | 50.57665 | -0.12026 | 33202 ft | 436 kts | 147° |
| 2026-05-01 13:10 | 50.52610 | -0.06754 | 33206 ft | 436 kts | 148° |
| 2026-05-01 13:10 | 50.47551 | -0.01491 | 33205 ft | 436 kts | 147° |
| 2026-05-01 13:11 | 50.42494 | 0.03755 | 33207 ft | 435 kts | 147° |
| 2026-05-01 13:11 | 50.37443 | 0.08983 | 33205 ft | 435 kts | 147° |
| 2026-05-01 13:12 | 50.32417 | 0.14170 | 33208 ft | 434 kts | 147° |
| 2026-05-01 13:12 | 50.27372 | 0.19364 | 33208 ft | 434 kts | 147° |
| 2026-05-01 13:13 | 50.22327 | 0.24545 | 33209 ft | 433 kts | 147° |
| 2026-05-01 13:13 | 50.17296 | 0.29723 | 33206 ft | 433 kts | 147° |
| 2026-05-01 13:14 | 50.12262 | 0.34895 | 33209 ft | 433 kts | 147° |
| 2026-05-01 13:14 | 50.07262 | 0.40019 | 33210 ft | 432 kts | 147° |
| 2026-05-01 13:15 | 50.02232 | 0.45160 | 33211 ft | 431 kts | 147° |
| 2026-05-01 13:15 | 49.97212 | 0.50279 | 33211 ft | 431 kts | 147° |
| 2026-05-01 13:16 | 49.92197 | 0.55378 | 33208 ft | 430 kts | 147° |
| 2026-05-01 13:16 | 49.87190 | 0.60459 | 33202 ft | 430 kts | 147° |
| 2026-05-01 13:17 | 49.80849 | 0.70235 | 33202 ft | 430 kts | 134° |
| 2026-05-01 13:17 | 49.78820 | 0.73645 | 33199 ft | 430 kts | 134° |
| 2026-05-01 13:18 | 49.72758 | 0.83884 | 33199 ft | 430 kts | 134° |
| 2026-05-01 13:18 | 49.68745 | 0.90649 | 33198 ft | 429 kts | 134° |
| 2026-05-01 13:19 | 49.64712 | 0.97429 | 33199 ft | 429 kts | 134° |
| 2026-05-01 13:20 | 49.58655 | 1.07579 | 33203 ft | 428 kts | 134° |
| 2026-05-01 13:20 | 49.54623 | 1.14315 | 33203 ft | 427 kts | 134° |
| 2026-05-01 13:21 | 49.48578 | 1.24378 | 33213 ft | 426 kts | 134° |
| 2026-05-01 13:21 | 49.44544 | 1.31073 | 33211 ft | 426 kts | 134° |
| 2026-05-01 13:22 | 49.40514 | 1.37741 | 33212 ft | 425 kts | 134° |
| 2026-05-01 13:22 | 49.36493 | 1.44380 | 33210 ft | 424 kts | 134° |
| 2026-05-01 13:23 | 49.32469 | 1.51007 | 33207 ft | 423 kts | 134° |
| 2026-05-01 13:23 | 49.28480 | 1.57557 | 33204 ft | 423 kts | 134° |
| 2026-05-01 13:24 | 49.24461 | 1.64142 | 33205 ft | 423 kts | 134° |
| 2026-05-01 13:25 | 49.18435 | 1.73982 | 33208 ft | 422 kts | 134° |
| 2026-05-01 13:25 | 49.14410 | 1.80534 | 33207 ft | 422 kts | 134° |
| 2026-05-01 13:26 | 49.10386 | 1.87066 | 33215 ft | 422 kts | 134° |
| 2026-05-01 13:26 | 49.06359 | 1.93589 | 33213 ft | 421 kts | 134° |
| 2026-05-01 13:27 | 49.02360 | 2.00048 | 33209 ft | 421 kts | 134° |
| 2026-05-01 13:27 | 48.96311 | 2.09790 | 33210 ft | 421 kts | 134° |
| 2026-05-01 13:28 | 48.90262 | 2.19493 | 33213 ft | 421 kts | 134° |
| 2026-05-01 13:29 | 48.82207 | 2.32360 | 33210 ft | 421 kts | 134° |
| 2026-05-01 13:31 | 48.70088 | 2.51598 | 33210 ft | 421 kts | 135° |
| 2026-05-01 13:32 | 48.59930 | 2.67621 | 33209 ft | 422 kts | 135° |
| 2026-05-01 13:33 | 48.54288 | 2.77703 | 33219 ft | 424 kts | 120° |
| 2026-05-01 13:33 | 48.51367 | 2.85456 | 33210 ft | 425 kts | 122° |
| 2026-05-01 13:34 | 48.45544 | 3.01027 | 33210 ft | 426 kts | 122° |
| 2026-05-01 13:35 | 48.41168 | 3.12709 | 33208 ft | 427 kts | 122° |
| 2026-05-01 13:36 | 48.36790 | 3.24348 | 33220 ft | 427 kts | 122° |
| 2026-05-01 13:36 | 48.32378 | 3.36024 | 33206 ft | 428 kts | 122° |
| 2026-05-01 13:37 | 48.29925 | 3.42494 | 33206 ft | 428 kts | 122° |
| 2026-05-01 13:37 | 48.26467 | 3.51588 | 33209 ft | 429 kts | 122° |
| 2026-05-01 13:38 | 48.22018 | 3.63240 | 33206 ft | 431 kts | 122° |
| 2026-05-01 13:39 | 48.19031 | 3.71036 | 33204 ft | 431 kts | 122° |
| 2026-05-01 13:39 | 48.16038 | 3.78824 | 33214 ft | 432 kts | 122° |
| 2026-05-01 13:40 | 48.13030 | 3.86630 | 33207 ft | 432 kts | 122° |
| 2026-05-01 13:40 | 48.10032 | 3.94386 | 33212 ft | 433 kts | 122° |
| 2026-05-01 13:41 | 48.07501 | 4.00916 | 33209 ft | 434 kts | 122° |
| 2026-05-01 13:41 | 48.04468 | 4.08721 | 33215 ft | 434 kts | 122° |
| 2026-05-01 13:42 | 48.01423 | 4.16533 | 33212 ft | 435 kts | 122° |
| 2026-05-01 13:42 | 47.98368 | 4.24350 | 33216 ft | 436 kts | 123° |
| 2026-05-01 13:43 | 47.95321 | 4.32121 | 33213 ft | 437 kts | 123° |
| 2026-05-01 13:43 | 47.92239 | 4.39961 | 33213 ft | 438 kts | 123° |
| 2026-05-01 13:44 | 47.89150 | 4.47795 | 33215 ft | 439 kts | 123° |
| 2026-05-01 13:44 | 47.86047 | 4.55640 | 33212 ft | 439 kts | 123° |
| 2026-05-01 13:45 | 47.82935 | 4.63486 | 33214 ft | 440 kts | 123° |
| 2026-05-01 13:45 | 47.79811 | 4.71339 | 33216 ft | 441 kts | 123° |
| 2026-05-01 13:46 | 47.76705 | 4.79125 | 33215 ft | 441 kts | 123° |
| 2026-05-01 13:46 | 47.73558 | 4.86991 | 33216 ft | 443 kts | 123° |
| 2026-05-01 13:47 | 47.70402 | 4.94856 | 33215 ft | 443 kts | 123° |
| 2026-05-01 13:47 | 47.67231 | 5.02735 | 33219 ft | 444 kts | 123° |
| 2026-05-01 13:48 | 47.64055 | 5.10604 | 33215 ft | 445 kts | 123° |
| 2026-05-01 13:48 | 47.60874 | 5.18462 | 33227 ft | 445 kts | 123° |
| 2026-05-01 13:49 | 47.57686 | 5.26315 | 33219 ft | 446 kts | 123° |
| 2026-05-01 13:49 | 47.54481 | 5.34188 | 33231 ft | 447 kts | 123° |
| 2026-05-01 13:50 | 47.51283 | 5.42020 | 33218 ft | 447 kts | 123° |
| 2026-05-01 13:50 | 47.48059 | 5.49892 | 33221 ft | 448 kts | 123° |
| 2026-05-01 13:51 | 47.44812 | 5.57797 | 33226 ft | 449 kts | 123° |
| 2026-05-01 13:51 | 47.41563 | 5.65685 | 33224 ft | 450 kts | 123° |
| 2026-05-01 13:52 | 47.38302 | 5.73581 | 33230 ft | 451 kts | 123° |
| 2026-05-01 13:52 | 47.35033 | 5.81470 | 33228 ft | 451 kts | 123° |
| 2026-05-01 13:53 | 47.31750 | 5.89371 | 33233 ft | 452 kts | 123° |
| 2026-05-01 13:53 | 47.26834 | 6.01161 | 33237 ft | 452 kts | 123° |
| 2026-05-01 13:54 | 47.23529 | 6.09057 | 33239 ft | 453 kts | 123° |
| 2026-05-01 13:54 | 47.20215 | 6.16953 | 33243 ft | 454 kts | 123° |
| 2026-05-01 13:55 | 47.16888 | 6.24857 | 33254 ft | 455 kts | 123° |
| 2026-05-01 13:55 | 47.13548 | 6.32768 | 33261 ft | 456 kts | 123° |
| 2026-05-01 13:56 | 47.10195 | 6.40688 | 33264 ft | 456 kts | 123° |
| 2026-05-01 13:56 | 47.06837 | 6.48598 | 33267 ft | 457 kts | 123° |
| 2026-05-01 13:57 | 47.03460 | 6.56529 | 33284 ft | 458 kts | 123° |
| 2026-05-01 13:57 | 47.00084 | 6.64435 | 33293 ft | 458 kts | 123° |
| 2026-05-01 13:58 | 46.96710 | 6.72312 | 33288 ft | 459 kts | 123° |
| 2026-05-01 13:58 | 46.93307 | 6.80236 | 33269 ft | 460 kts | 123° |
| 2026-05-01 13:59 | 46.89893 | 6.88161 | 33264 ft | 460 kts | 123° |
| 2026-05-01 13:59 | 46.86474 | 6.96077 | 33264 ft | 461 kts | 123° |
| 2026-05-01 14:00 | 46.83044 | 7.03994 | 33263 ft | 461 kts | 123° |
| 2026-05-01 14:00 | 46.79597 | 7.11928 | 33266 ft | 462 kts | 123° |
| 2026-05-01 14:01 | 46.76141 | 7.19859 | 33266 ft | 463 kts | 123° |
| 2026-05-01 14:01 | 46.72694 | 7.27748 | 33250 ft | 464 kts | 123° |
| 2026-05-01 14:02 | 46.69215 | 7.35687 | 33260 ft | 465 kts | 123° |
| 2026-05-01 14:02 | 46.65730 | 7.43616 | 33254 ft | 465 kts | 123° |
| 2026-05-01 14:03 | 46.62235 | 7.51548 | 33267 ft | 466 kts | 123° |
| 2026-05-01 14:03 | 46.58738 | 7.59460 | 33280 ft | 466 kts | 123° |
| 2026-05-01 14:04 | 46.55231 | 7.67371 | 33278 ft | 466 kts | 123° |
| 2026-05-01 14:04 | 46.52306 | 7.73953 | 33279 ft | 467 kts | 123° |
| 2026-05-01 14:05 | 46.48182 | 7.83206 | 33289 ft | 467 kts | 122° |
| 2026-05-01 14:05 | 46.44642 | 7.91124 | 33277 ft | 467 kts | 122° |
| 2026-05-01 14:06 | 46.41116 | 7.98988 | 33309 ft | 467 kts | 122° |
| 2026-05-01 14:06 | 46.37568 | 8.06881 | 33307 ft | 468 kts | 122° |
| 2026-05-01 14:07 | 46.34014 | 8.14767 | 33320 ft | 468 kts | 122° |
| 2026-05-01 14:08 | 46.28676 | 8.26575 | 33223 ft | 464 kts | 122° |
| 2026-05-01 14:08 | 46.26910 | 8.30471 | 32248 ft | 467 kts | 122° |
| 2026-05-01 14:08 | 46.25108 | 8.34442 | 31077 ft | 475 kts | 122° |
| 2026-05-01 14:08 | 46.23299 | 8.38420 | 30368 ft | 473 kts | 122° |
| 2026-05-01 14:09 | 46.21493 | 8.42388 | 29353 ft | 473 kts | 122° |
| 2026-05-01 14:09 | 46.19678 | 8.46369 | 28367 ft | 475 kts | 122° |
| 2026-05-01 14:09 | 46.17861 | 8.50350 | 27419 ft | 475 kts | 122° |
| 2026-05-01 14:09 | 46.16037 | 8.54341 | 26579 ft | 473 kts | 122° |
| 2026-05-01 14:10 | 46.14230 | 8.58289 | 25854 ft | 469 kts | 122° |
| 2026-05-01 14:10 | 46.12440 | 8.62195 | 25115 ft | 467 kts | 122° |
| 2026-05-01 14:10 | 46.10671 | 8.66113 | 24349 ft | 464 kts | 119° |
| 2026-05-01 14:10 | 46.09064 | 8.70063 | 23523 ft | 463 kts | 118° |
| 2026-05-01 14:11 | 46.07440 | 8.74037 | 22779 ft | 458 kts | 119° |
| 2026-05-01 14:11 | 46.04231 | 8.81836 | 21364 ft | 448 kts | 118° |
| 2026-05-01 14:11 | 46.02644 | 8.85681 | 20663 ft | 444 kts | 118° |
| 2026-05-01 14:12 | 46.01072 | 8.89484 | 20014 ft | 439 kts | 118° |
| 2026-05-01 14:12 | 45.99511 | 8.93255 | 19320 ft | 436 kts | 119° |
| 2026-05-01 14:12 | 45.97963 | 8.96991 | 18786 ft | 430 kts | 119° |
| 2026-05-01 14:12 | 45.96436 | 9.00670 | 17907 ft | 430 kts | 119° |
| 2026-05-01 14:13 | 45.94914 | 9.04332 | 17285 ft | 424 kts | 119° |
| 2026-05-01 14:13 | 45.93954 | 9.06640 | 16922 ft | 420 kts | 119° |
| 2026-05-01 14:13 | 45.91990 | 9.11355 | 16546 ft | 403 kts | 119° |
| 2026-05-01 14:13 | 45.90558 | 9.14790 | 16393 ft | 389 kts | 119° |
| 2026-05-01 14:14 | 45.89204 | 9.18031 | 16214 ft | 377 kts | 119° |
| 2026-05-01 14:14 | 45.87872 | 9.21218 | 16025 ft | 367 kts | 118° |
| 2026-05-01 14:14 | 45.86577 | 9.24312 | 15858 ft | 357 kts | 118° |
| 2026-05-01 14:14 | 45.85314 | 9.27324 | 15695 ft | 348 kts | 118° |
| 2026-05-01 14:15 | 45.84081 | 9.30267 | 15528 ft | 339 kts | 118° |
| 2026-05-01 14:15 | 45.82883 | 9.33121 | 15346 ft | 330 kts | 118° |
| 2026-05-01 14:15 | 45.81711 | 9.35911 | 15188 ft | 323 kts | 118° |
| 2026-05-01 14:15 | 45.80553 | 9.38671 | 14805 ft | 323 kts | 118° |
| 2026-05-01 14:16 | 45.79485 | 9.41215 | 14520 ft | 321 kts | 118° |
| 2026-05-01 14:16 | 45.78336 | 9.43951 | 14199 ft | 319 kts | 118° |
| 2026-05-01 14:16 | 45.77200 | 9.46652 | 13845 ft | 314 kts | 118° |
| 2026-05-01 14:16 | 45.76076 | 9.49323 | 13498 ft | 310 kts | 118° |
| 2026-05-01 14:17 | 45.74972 | 9.51942 | 13201 ft | 305 kts | 119° |
| 2026-05-01 14:17 | 45.73899 | 9.54488 | 12888 ft | 301 kts | 119° |
| 2026-05-01 14:17 | 45.72823 | 9.57037 | 12574 ft | 297 kts | 119° |
| 2026-05-01 14:17 | 45.71763 | 9.59547 | 12272 ft | 293 kts | 119° |
| 2026-05-01 14:18 | 45.70713 | 9.62030 | 11945 ft | 291 kts | 119° |
| 2026-05-01 14:18 | 45.69665 | 9.64502 | 11623 ft | 288 kts | 119° |
| 2026-05-01 14:18 | 45.68633 | 9.66937 | 11345 ft | 284 kts | 119° |
| 2026-05-01 14:18 | 45.67956 | 9.68535 | 11156 ft | 282 kts | 119° |
| 2026-05-01 14:19 | 45.66144 | 9.71194 | 10722 ft | 284 kts | 149° |
| 2026-05-01 14:19 | 45.64353 | 9.72413 | 10538 ft | 285 kts | 154° |
| 2026-05-01 14:19 | 45.62551 | 9.73589 | 10400 ft | 283 kts | 154° |
| 2026-05-01 14:19 | 45.60752 | 9.74742 | 10145 ft | 284 kts | 154° |
| 2026-05-01 14:20 | 45.58944 | 9.75885 | 9806 ft | 284 kts | 155° |
| 2026-05-01 14:20 | 45.55405 | 9.78095 | 9395 ft | 271 kts | 155° |
| 2026-05-01 14:20 | 45.53783 | 9.79402 | 9072 ft | 267 kts | 135° |
| 2026-05-01 14:21 | 45.52772 | 9.81579 | 8683 ft | 264 kts | 108° |
| 2026-05-01 14:21 | 45.52259 | 9.84089 | 8384 ft | 264 kts | 104° |
| 2026-05-01 14:21 | 45.51756 | 9.86636 | 7985 ft | 268 kts | 104° |
| 2026-05-01 14:22 | 45.50897 | 9.91855 | 7100 ft | 278 kts | 87° |
| 2026-05-01 14:22 | 45.51487 | 9.94453 | 6590 ft | 282 kts | 52° |
| 2026-05-01 14:22 | 45.53055 | 9.96080 | 6293 ft | 279 kts | 17° |
| 2026-05-01 14:22 | 45.54930 | 9.96235 | 6352 ft | 265 kts | 356° |
| 2026-05-01 14:23 | 45.56734 | 9.96098 | 6345 ft | 253 kts | 358° |
| 2026-05-01 14:23 | 45.58487 | 9.95987 | 5957 ft | 255 kts | 358° |
| 2026-05-01 14:23 | 45.60233 | 9.95703 | 5527 ft | 251 kts | 342° |
| 2026-05-01 14:23 | 45.61733 | 9.94473 | 5050 ft | 251 kts | 316° |
| 2026-05-01 14:24 | 45.62724 | 9.92439 | 4538 ft | 250 kts | 292° |
| 2026-05-01 14:24 | 45.63227 | 9.90067 | 4042 ft | 250 kts | 283° |
| 2026-05-01 14:24 | 45.63636 | 9.87647 | 3563 ft | 251 kts | 283° |
| 2026-05-01 14:24 | 45.64078 | 9.85254 | 3044 ft | 253 kts | 284° |
| 2026-05-01 14:25 | 45.64533 | 9.82808 | 2533 ft | 254 kts | 284° |
| 2026-05-01 14:25 | 45.64984 | 9.80382 | 2126 ft | 251 kts | 284° |
| 2026-05-01 14:25 | 45.65414 | 9.78067 | 1796 ft | 228 kts | 284° |
| 2026-05-01 14:25 | 45.65796 | 9.76007 | 1443 ft | 206 kts | 284° |
| 2026-05-01 14:26 | 45.66139 | 9.74149 | 1102 ft | 181 kts | 284° |
| 2026-05-01 14:26 | 45.66614 | 9.71600 | 790 ft | 132 kts | 284° |
| 2026-05-01 14:26 | 45.66784 | 9.70686 | 790 ft | 61 kts | 285° |
| 2026-05-01 14:27 | 45.66856 | 9.70309 | 790 ft | 34 kts | 284° |
| 2026-05-01 14:27 | 45.66885 | 9.70144 | 790 ft | 12 kts | 280° |
| 2026-05-01 14:27 | 45.66883 | 9.70007 | 790 ft | 16 kts | 251° |
| 2026-05-01 14:28 | 45.66796 | 9.69754 | 790 ft | 14 kts | 261° |
| 2026-05-01 14:28 | 45.66818 | 9.69606 | 790 ft | 16 kts | 282° |
| 2026-05-01 14:28 | 45.66821 | 9.69588 | 790 ft | 1 kts | 283° |
| 2026-05-01 14:28 | 45.66819 | 9.69579 | 790 ft | 1 kts | 247° |
| 2026-05-01 14:29 | 45.66817 | 9.69578 | 790 ft | 0 kts | 221° |
| 2026-05-01 14:29 | 45.66815 | 9.69579 | 790 ft | 0 kts | 191° |
| 2026-05-01 14:30 | 45.66729 | 9.69555 | 790 ft | 0 kts | 195° |